sensor_id;sensor_type;location;lat;lon;timestamp;pressure;altitude;pressure_sealevel;temperature;humidity
54042;BME280;41156;51.508;5.406;2022-09-16T00:00:11;101003.72;;;12.92;93.21
54042;BME280;41156;51.508;5.406;2022-09-16T00:03:12;101010.41;;;12.90;95.47
54042;BME280;41156;51.508;5.406;2022-09-16T00:06:25;101011.31;;;12.84;97.15
54042;BME280;41156;51.508;5.406;2022-09-16T00:09:26;101002.78;;;12.80;98.01
54042;BME280;41156;51.508;5.406;2022-09-16T00:12:27;101002.19;;;12.78;98.76
54042;BME280;41156;51.508;5.406;2022-09-16T00:15:40;101003.47;;;12.75;100.00
54042;BME280;41156;51.508;5.406;2022-09-16T00:18:41;100995.59;;;12.74;100.00
54042;BME280;41156;51.508;5.406;2022-09-16T00:21:41;100992.88;;;12.74;100.00
54042;BME280;41156;51.508;5.406;2022-09-16T00:24:42;100994.88;;;12.60;100.00
54042;BME280;41156;51.508;5.406;2022-09-16T00:27:48;100994.13;;;12.71;100.00
54042;BME280;41156;51.508;5.406;2022-09-16T00:30:52;100990.16;;;12.74;100.00
54042;BME280;41156;51.508;5.406;2022-09-16T00:33:53;100992.03;;;12.73;100.00
54042;BME280;41156;51.508;5.406;2022-09-16T00:36:54;100991.81;;;12.75;100.00
54042;BME280;41156;51.508;5.406;2022-09-16T00:40:01;100995.59;;;12.74;100.00
54042;BME280;41156;51.508;5.406;2022-09-16T00:43:02;100988.50;;;12.73;100.00
54042;BME280;41156;51.508;5.406;2022-09-16T00:46:03;100988.13;;;12.69;100.00
54042;BME280;41156;51.508;5.406;2022-09-16T00:49:24;100981.69;;;12.64;100.00
54042;BME280;41156;51.508;5.406;2022-09-16T00:52:28;100978.25;;;12.56;100.00
54042;BME280;41156;51.508;5.406;2022-09-16T00:55:36;100979.13;;;12.50;100.00
54042;BME280;41156;51.508;5.406;2022-09-16T00:58:41;100975.88;;;12.42;100.00
54042;BME280;41156;51.508;5.406;2022-09-16T01:01:47;100976.78;;;12.35;100.00
54042;BME280;41156;51.508;5.406;2022-09-16T01:05:02;100974.75;;;12.31;100.00
54042;BME280;41156;51.508;5.406;2022-09-16T01:08:05;100972.13;;;12.24;100.00
54042;BME280;41156;51.508;5.406;2022-09-16T01:11:06;100965.91;;;12.17;100.00
54042;BME280;41156;51.508;5.406;2022-09-16T01:14:12;100977.88;;;12.09;100.00
54042;BME280;41156;51.508;5.406;2022-09-16T01:24:51;100969.25;;;11.87;100.00
54042;BME280;41156;51.508;5.406;2022-09-16T01:31:42;100972.00;;;11.80;100.00
54042;BME280;41156;51.508;5.406;2022-09-16T01:34:59;100978.69;;;11.78;100.00
54042;BME280;41156;51.508;5.406;2022-09-16T01:47:49;100965.03;;;11.66;100.00
54042;BME280;41156;51.508;5.406;2022-09-16T01:50:59;100964.88;;;11.61;100.00
54042;BME280;41156;51.508;5.406;2022-09-16T01:54:12;100959.28;;;11.56;100.00
54042;BME280;41156;51.508;5.406;2022-09-16T02:00:27;100974.50;;;11.50;100.00
54042;BME280;41156;51.508;5.406;2022-09-16T02:03:32;100972.44;;;11.45;100.00
54042;BME280;41156;51.508;5.406;2022-09-16T02:06:36;100972.91;;;11.42;100.00
54042;BME280;41156;51.508;5.406;2022-09-16T02:09:42;100980.38;;;11.40;100.00
54042;BME280;41156;51.508;5.406;2022-09-16T02:12:48;100981.66;;;11.38;100.00
54042;BME280;41156;51.508;5.406;2022-09-16T02:15:51;100981.66;;;11.38;100.00
54042;BME280;41156;51.508;5.406;2022-09-16T02:19:11;100989.16;;;11.42;100.00
54042;BME280;41156;51.508;5.406;2022-09-16T02:22:22;100977.25;;;11.43;100.00
54042;BME280;41156;51.508;5.406;2022-09-16T02:25:24;100976.22;;;11.44;100.00
54042;BME280;41156;51.508;5.406;2022-09-16T02:28:32;100983.81;;;11.22;100.00
54042;BME280;41156;51.508;5.406;2022-09-16T02:31:35;100978.50;;;11.02;100.00
54042;BME280;41156;51.508;5.406;2022-09-16T02:34:43;100976.25;;;10.99;100.00
54042;BME280;41156;51.508;5.406;2022-09-16T02:38:13;100977.50;;;11.35;100.00
54042;BME280;41156;51.508;5.406;2022-09-16T02:41:12;100977.00;;;11.52;100.00
54042;BME280;41156;51.508;5.406;2022-09-16T02:44:14;100975.28;;;11.57;100.00
54042;BME280;41156;51.508;5.406;2022-09-16T02:47:30;100966.50;;;11.62;100.00
54042;BME280;41156;51.508;5.406;2022-09-16T02:50:46;100969.00;;;11.63;100.00
54042;BME280;41156;51.508;5.406;2022-09-16T02:53:55;100973.59;;;11.63;100.00
54042;BME280;41156;51.508;5.406;2022-09-16T02:56:58;100980.06;;;11.62;100.00
54042;BME280;41156;51.508;5.406;2022-09-16T03:00:02;100982.16;;;11.60;100.00
54042;BME280;41156;51.508;5.406;2022-09-16T03:03:03;100970.72;;;11.58;100.00
54042;BME280;41156;51.508;5.406;2022-09-16T03:06:26;100967.81;;;11.59;100.00
54042;BME280;41156;51.508;5.406;2022-09-16T03:09:28;100965.91;;;11.60;100.00
54042;BME280;41156;51.508;5.406;2022-09-16T03:13:06;100970.28;;;11.61;100.00
54042;BME280;41156;51.508;5.406;2022-09-16T03:16:40;100960.28;;;11.61;100.00
54042;BME280;41156;51.508;5.406;2022-09-16T03:27:02;100970.91;;;11.63;100.00
54042;BME280;41156;51.508;5.406;2022-09-16T03:30:09;100958.19;;;11.63;100.00
54042;BME280;41156;51.508;5.406;2022-09-16T03:36:57;100963.81;;;11.62;100.00
54042;BME280;41156;51.508;5.406;2022-09-16T03:40:03;100957.78;;;11.60;100.00
54042;BME280;41156;51.508;5.406;2022-09-16T03:43:12;100959.91;;;11.58;100.00
54042;BME280;41156;51.508;5.406;2022-09-16T03:46:14;100961.59;;;11.52;100.00
54042;BME280;41156;51.508;5.406;2022-09-16T03:49:15;100959.56;;;11.47;100.00
54042;BME280;41156;51.508;5.406;2022-09-16T03:52:16;100962.69;;;11.44;100.00
54042;BME280;41156;51.508;5.406;2022-09-16T03:55:19;100962.09;;;11.42;100.00
54042;BME280;41156;51.508;5.406;2022-09-16T03:58:19;100958.75;;;11.40;100.00
54042;BME280;41156;51.508;5.406;2022-09-16T04:01:22;100964.16;;;11.40;100.00
54042;BME280;41156;51.508;5.406;2022-09-16T04:04:23;100963.94;;;11.42;100.00
54042;BME280;41156;51.508;5.406;2022-09-16T04:07:23;100968.31;;;11.43;100.00
54042;BME280;41156;51.508;5.406;2022-09-16T04:10:24;100959.97;;;11.44;100.00
54042;BME280;41156;51.508;5.406;2022-09-16T04:13:25;100963.72;;;11.43;100.00
54042;BME280;41156;51.508;5.406;2022-09-16T04:16:26;100969.13;;;11.43;100.00
54042;BME280;41156;51.508;5.406;2022-09-16T04:19:27;100961.03;;;11.43;100.00
54042;BME280;41156;51.508;5.406;2022-09-16T04:22:28;100969.34;;;11.42;100.00
54042;BME280;41156;51.508;5.406;2022-09-16T04:25:29;100961.03;;;11.43;100.00
54042;BME280;41156;51.508;5.406;2022-09-16T04:28:31;100973.50;;;11.44;100.00
54042;BME280;41156;51.508;5.406;2022-09-16T04:31:35;100969.53;;;11.47;100.00
54042;BME280;41156;51.508;5.406;2022-09-16T04:34:36;100969.09;;;11.50;100.00
54042;BME280;41156;51.508;5.406;2022-09-16T04:37:37;100982.84;;;11.48;100.00
54042;BME280;41156;51.508;5.406;2022-09-16T04:40:37;100985.13;;;11.52;100.00
54042;BME280;41156;51.508;5.406;2022-09-16T04:43:39;100979.72;;;11.52;100.00
54042;BME280;41156;51.508;5.406;2022-09-16T04:46:40;100976.19;;;11.51;100.00
54042;BME280;41156;51.508;5.406;2022-09-16T04:49:41;100975.97;;;11.53;100.00
54042;BME280;41156;51.508;5.406;2022-09-16T04:52:48;100955.94;;;11.54;100.00
54042;BME280;41156;51.508;5.406;2022-09-16T04:55:50;100955.75;;;11.55;100.00
54042;BME280;41156;51.508;5.406;2022-09-16T04:58:54;100952.81;;;11.57;100.00
54042;BME280;41156;51.508;5.406;2022-09-16T05:01:55;100950.09;;;11.57;100.00
54042;BME280;41156;51.508;5.406;2022-09-16T05:04:56;100958.84;;;11.59;100.00
54042;BME280;41156;51.508;5.406;2022-09-16T05:07:57;100960.72;;;11.58;100.00
54042;BME280;41156;51.508;5.406;2022-09-16T05:11:02;100959.03;;;11.57;100.00
54042;BME280;41156;51.508;5.406;2022-09-16T05:14:12;100963.63;;;11.57;100.00
54042;BME280;41156;51.508;5.406;2022-09-16T05:17:13;100960.13;;;11.56;100.00
54042;BME280;41156;51.508;5.406;2022-09-16T05:20:13;100967.84;;;11.53;100.00
54042;BME280;41156;51.508;5.406;2022-09-16T05:23:14;100971.59;;;11.52;100.00
54042;BME280;41156;51.508;5.406;2022-09-16T05:29:20;100983.00;;;11.54;100.00
54042;BME280;41156;51.508;5.406;2022-09-16T05:32:21;100984.69;;;11.55;100.00
54042;BME280;41156;51.508;5.406;2022-09-16T05:35:25;100980.69;;;11.57;100.00
54042;BME280;41156;51.508;5.406;2022-09-16T05:38:25;100983.81;;;11.61;100.00
54042;BME280;41156;51.508;5.406;2022-09-16T05:41:26;100975.88;;;11.66;100.00
54042;BME280;41156;51.508;5.406;2022-09-16T05:44:27;100982.72;;;11.69;100.00
54042;BME280;41156;51.508;5.406;2022-09-16T05:47:28;100974.97;;;11.72;100.00
54042;BME280;41156;51.508;5.406;2022-09-16T05:50:28;100978.91;;;11.76;100.00
54042;BME280;41156;51.508;5.406;2022-09-16T05:53:34;100979.91;;;11.82;100.00
54042;BME280;41156;51.508;5.406;2022-09-16T05:56:34;100975.94;;;11.84;100.00
54042;BME280;41156;51.508;5.406;2022-09-16T05:59:35;100974.44;;;11.89;100.00
54042;BME280;41156;51.508;5.406;2022-09-16T06:02:37;100978.41;;;11.93;100.00
54042;BME280;41156;51.508;5.406;2022-09-16T06:05:37;100974.81;;;11.99;100.00
54042;BME280;41156;51.508;5.406;2022-09-16T06:08:39;100976.25;;;12.01;100.00
54042;BME280;41156;51.508;5.406;2022-09-16T06:11:43;100988.75;;;12.02;100.00
54042;BME280;41156;51.508;5.406;2022-09-16T06:14:44;100982.28;;;12.03;100.00
54042;BME280;41156;51.508;5.406;2022-09-16T06:17:45;100985.19;;;12.02;100.00
54042;BME280;41156;51.508;5.406;2022-09-16T06:20:46;100982.50;;;12.02;100.00
54042;BME280;41156;51.508;5.406;2022-09-16T06:23:47;100984.53;;;12.07;100.00
54042;BME280;41156;51.508;5.406;2022-09-16T06:26:48;100996.63;;;12.11;100.00
54042;BME280;41156;51.508;5.406;2022-09-16T06:29:57;101000.75;;;12.13;100.00
54042;BME280;41156;51.508;5.406;2022-09-16T06:33:00;100999.25;;;12.17;100.00
54042;BME280;41156;51.508;5.406;2022-09-16T06:36:02;101000.91;;;12.18;100.00
54042;BME280;41156;51.508;5.406;2022-09-16T06:39:06;100997.75;;;12.21;100.00
54042;BME280;41156;51.508;5.406;2022-09-16T06:42:07;101003.56;;;12.25;100.00
54042;BME280;41156;51.508;5.406;2022-09-16T06:45:08;101006.63;;;12.29;100.00
54042;BME280;41156;51.508;5.406;2022-09-16T06:48:09;101002.91;;;12.30;100.00
54042;BME280;41156;51.508;5.406;2022-09-16T06:51:18;101013.88;;;12.35;100.00
54042;BME280;41156;51.508;5.406;2022-09-16T06:54:19;101016.38;;;12.36;100.00
54042;BME280;41156;51.508;5.406;2022-09-16T06:57:20;101016.16;;;12.38;100.00
54042;BME280;41156;51.508;5.406;2022-09-16T07:00:24;101014.94;;;12.34;100.00
54042;BME280;41156;51.508;5.406;2022-09-16T07:03:24;101018.50;;;12.34;100.00
54042;BME280;41156;51.508;5.406;2022-09-16T07:06:30;101012.16;;;12.40;100.00
54042;BME280;41156;51.508;5.406;2022-09-16T07:09:32;101010.25;;;12.66;100.00
54042;BME280;41156;51.508;5.406;2022-09-16T07:12:32;101008.94;;;13.43;100.00
54042;BME280;41156;51.508;5.406;2022-09-16T07:15:33;101000.50;;;14.17;100.00
54042;BME280;41156;51.508;5.406;2022-09-16T07:18:34;101008.78;;;14.93;100.00
54042;BME280;41156;51.508;5.406;2022-09-16T07:21:34;101004.03;;;15.86;100.00
54042;BME280;41156;51.508;5.406;2022-09-16T07:24:35;101015.13;;;16.14;100.00
54042;BME280;41156;51.508;5.406;2022-09-16T07:27:35;101016.94;;;16.08;99.01
54042;BME280;41156;51.508;5.406;2022-09-16T07:30:36;101021.38;;;16.48;100.00
54042;BME280;41156;51.508;5.406;2022-09-16T07:33:48;101028.28;;;17.12;88.14
54042;BME280;41156;51.508;5.406;2022-09-16T07:36:48;101035.25;;;17.25;96.56
54042;BME280;41156;51.508;5.406;2022-09-16T07:39:49;101038.88;;;16.86;97.96
54042;BME280;41156;51.508;5.406;2022-09-16T07:42:49;101027.84;;;16.08;93.70
54042;BME280;41156;51.508;5.406;2022-09-16T07:45:56;101041.81;;;15.25;95.13
54042;BME280;41156;51.508;5.406;2022-09-16T07:48:58;101041.09;;;14.89;98.77
54042;BME280;41156;51.508;5.406;2022-09-16T07:51:59;101032.19;;;14.58;99.45
54042;BME280;41156;51.508;5.406;2022-09-16T07:55:00;101028.78;;;14.39;100.00
54042;BME280;41156;51.508;5.406;2022-09-16T07:58:00;101033.34;;;14.27;100.00
54042;BME280;41156;51.508;5.406;2022-09-16T08:01:00;101036.78;;;14.11;100.00
54042;BME280;41156;51.508;5.406;2022-09-16T08:04:02;101045.75;;;13.99;100.00
54042;BME280;41156;51.508;5.406;2022-09-16T08:07:04;101047.16;;;14.14;100.00
54042;BME280;41156;51.508;5.406;2022-09-16T08:10:04;101050.41;;;14.58;100.00
54042;BME280;41156;51.508;5.406;2022-09-16T08:13:06;101063.25;;;15.22;100.00
54042;BME280;41156;51.508;5.406;2022-09-16T08:16:10;101059.88;;;15.72;98.25
54042;BME280;41156;51.508;5.406;2022-09-16T08:19:10;101055.03;;;15.74;92.05
54042;BME280;41156;51.508;5.406;2022-09-16T08:22:12;101058.88;;;15.90;97.97
54042;BME280;41156;51.508;5.406;2022-09-16T08:25:12;101049.25;;;16.16;98.35
54042;BME280;41156;51.508;5.406;2022-09-16T08:28:14;101052.31;;;16.20;92.84
54042;BME280;41156;51.508;5.406;2022-09-16T08:31:16;101052.72;;;16.28;99.61
54042;BME280;41156;51.508;5.406;2022-09-16T08:34:17;101058.56;;;16.20;100.00
54042;BME280;41156;51.508;5.406;2022-09-16T08:37:17;101056.53;;;15.82;98.79
54042;BME280;41156;51.508;5.406;2022-09-16T08:40:22;101061.44;;;15.68;98.33
54042;BME280;41156;51.508;5.406;2022-09-16T08:43:46;101061.19;;;15.81;96.10
54042;BME280;41156;51.508;5.406;2022-09-16T08:46:53;101054.03;;;15.92;99.31
54042;BME280;41156;51.508;5.406;2022-09-16T08:49:54;101044.53;;;15.95;96.99
54042;BME280;41156;51.508;5.406;2022-09-16T08:53:00;101050.78;;;15.95;94.11
54042;BME280;41156;51.508;5.406;2022-09-16T08:56:04;101064.47;;;16.12;96.22
54042;BME280;41156;51.508;5.406;2022-09-16T08:59:12;101055.59;;;16.22;96.47
54042;BME280;41156;51.508;5.406;2022-09-16T09:05:53;101056.53;;;16.27;91.31
54042;BME280;41156;51.508;5.406;2022-09-16T09:15:25;101055.28;;;16.52;95.73
54042;BME280;41156;51.508;5.406;2022-09-16T09:18:40;101046.56;;;16.55;90.38
54042;BME280;41156;51.508;5.406;2022-09-16T09:25:20;101046.91;;;16.42;87.49
54042;BME280;41156;51.508;5.406;2022-09-16T09:32:10;101054.13;;;16.14;88.01
54042;BME280;41156;51.508;5.406;2022-09-16T09:36:27;101054.94;;;15.98;89.55
54042;BME280;41156;51.508;5.406;2022-09-16T09:39:17;101050.94;;;15.88;90.15
54042;BME280;41156;51.508;5.406;2022-09-16T09:42:27;101044.53;;;16.12;92.61
54042;BME280;41156;51.508;5.406;2022-09-16T09:45:31;101048.97;;;16.52;93.90
54042;BME280;41156;51.508;5.406;2022-09-16T09:48:40;101048.47;;;16.72;89.02
54042;BME280;41156;51.508;5.406;2022-09-16T09:51:55;101045.47;;;16.90;86.03
54042;BME280;41156;51.508;5.406;2022-09-16T09:55:07;101032.97;;;17.16;83.98
54042;BME280;41156;51.508;5.406;2022-09-16T10:01:20;101063.25;;;17.59;84.85
54042;BME280;41156;51.508;5.406;2022-09-16T10:04:20;101066.84;;;17.37;88.68
54042;BME280;41156;51.508;5.406;2022-09-16T10:07:22;101082.88;;;16.73;83.74
54042;BME280;41156;51.508;5.406;2022-09-16T10:10:25;101109.53;;;16.03;88.09
54042;BME280;41156;51.508;5.406;2022-09-16T10:13:27;101113.91;;;15.23;87.68
54042;BME280;41156;51.508;5.406;2022-09-16T10:16:35;101099.81;;;14.43;89.50
54042;BME280;41156;51.508;5.406;2022-09-16T10:19:54;101097.28;;;13.76;94.08
54042;BME280;41156;51.508;5.406;2022-09-16T10:23:13;101087.75;;;13.36;95.80
54042;BME280;41156;51.508;5.406;2022-09-16T10:26:20;101073.56;;;13.16;96.44
54042;BME280;41156;51.508;5.406;2022-09-16T10:29:21;101066.75;;;12.69;99.53
54042;BME280;41156;51.508;5.406;2022-09-16T10:32:22;101069.38;;;12.57;100.00
54042;BME280;41156;51.508;5.406;2022-09-16T10:35:24;101072.22;;;12.63;100.00
54042;BME280;41156;51.508;5.406;2022-09-16T10:38:36;101070.38;;;13.00;100.00
54042;BME280;41156;51.508;5.406;2022-09-16T10:41:43;101067.97;;;13.10;100.00
54042;BME280;41156;51.508;5.406;2022-09-16T10:44:48;101073.31;;;13.17;100.00
54042;BME280;41156;51.508;5.406;2022-09-16T10:47:53;101078.06;;;13.22;100.00
54042;BME280;41156;51.508;5.406;2022-09-16T10:51:04;101073.28;;;13.42;100.00
54042;BME280;41156;51.508;5.406;2022-09-16T10:54:04;101079.25;;;13.93;100.00
54042;BME280;41156;51.508;5.406;2022-09-16T11:00:24;101070.69;;;14.20;100.00
54042;BME280;41156;51.508;5.406;2022-09-16T11:03:55;101067.19;;;14.31;100.00
54042;BME280;41156;51.508;5.406;2022-09-16T11:10:30;101073.09;;;14.40;100.00
54042;BME280;41156;51.508;5.406;2022-09-16T11:20:37;101070.84;;;14.49;100.00
54042;BME280;41156;51.508;5.406;2022-09-16T11:30:48;101055.66;;;14.59;100.00
54042;BME280;41156;51.508;5.406;2022-09-16T11:37:12;101072.97;;;15.17;100.00
54042;BME280;41156;51.508;5.406;2022-09-16T11:46:51;101073.69;;;15.94;100.00
54042;BME280;41156;51.508;5.406;2022-09-16T11:53:44;101083.38;;;16.53;94.77
54042;BME280;41156;51.508;5.406;2022-09-16T11:56:53;101083.56;;;16.46;97.21
54042;BME280;41156;51.508;5.406;2022-09-16T12:00:02;101089.41;;;16.38;98.63
54042;BME280;41156;51.508;5.406;2022-09-16T12:03:41;101089.31;;;16.16;90.39
54042;BME280;41156;51.508;5.406;2022-09-16T12:06:53;101092.47;;;15.79;93.22
54042;BME280;41156;51.508;5.406;2022-09-16T12:10:00;101096.19;;;15.61;96.79
54042;BME280;41156;51.508;5.406;2022-09-16T12:13:10;101099.00;;;15.37;87.69
54042;BME280;41156;51.508;5.406;2022-09-16T12:16:18;101100.25;;;14.94;92.49
54042;BME280;41156;51.508;5.406;2022-09-16T12:19:36;101094.66;;;14.65;94.68
54042;BME280;41156;51.508;5.406;2022-09-16T12:26:20;101090.84;;;15.13;96.24
54042;BME280;41156;51.508;5.406;2022-09-16T12:29:28;101090.50;;;15.10;95.01
54042;BME280;41156;51.508;5.406;2022-09-16T12:32:56;101088.28;;;14.95;93.70
54042;BME280;41156;51.508;5.406;2022-09-16T12:36:04;101096.06;;;15.03;95.71
54042;BME280;41156;51.508;5.406;2022-09-16T12:39:09;101094.91;;;14.99;93.45
54042;BME280;41156;51.508;5.406;2022-09-16T12:42:36;101093.94;;;14.82;92.74
54042;BME280;41156;51.508;5.406;2022-09-16T12:45:57;101095.22;;;14.55;92.90
54042;BME280;41156;51.508;5.406;2022-09-16T12:49:32;101110.97;;;14.65;90.19
54042;BME280;41156;51.508;5.406;2022-09-16T12:52:54;101113.88;;;14.52;93.38
54042;BME280;41156;51.508;5.406;2022-09-16T13:03:02;101107.78;;;14.02;100.00
54042;BME280;41156;51.508;5.406;2022-09-16T13:06:13;101120.03;;;14.05;99.79
54042;BME280;41156;51.508;5.406;2022-09-16T13:09:26;101125.13;;;14.01;100.00
54042;BME280;41156;51.508;5.406;2022-09-16T13:12:27;101122.38;;;13.90;100.00
54042;BME280;41156;51.508;5.406;2022-09-16T13:15:34;101120.78;;;13.82;100.00
54042;BME280;41156;51.508;5.406;2022-09-16T13:18:45;101126.53;;;13.74;100.00
54042;BME280;41156;51.508;5.406;2022-09-16T13:21:46;101122.84;;;13.68;100.00
54042;BME280;41156;51.508;5.406;2022-09-16T13:24:52;101130.72;;;13.58;100.00
54042;BME280;41156;51.508;5.406;2022-09-16T13:28:00;101120.69;;;13.40;100.00
54042;BME280;41156;51.508;5.406;2022-09-16T13:34:14;101131.75;;;13.20;100.00
54042;BME280;41156;51.508;5.406;2022-09-16T13:37:21;101120.81;;;13.08;100.00
54042;BME280;41156;51.508;5.406;2022-09-16T13:40:26;101122.38;;;12.97;100.00
54042;BME280;41156;51.508;5.406;2022-09-16T13:43:50;101125.56;;;12.94;100.00
54042;BME280;41156;51.508;5.406;2022-09-16T13:46:51;101135.47;;;13.00;100.00
54042;BME280;41156;51.508;5.406;2022-09-16T13:50:09;101130.69;;;13.21;100.00
54042;BME280;41156;51.508;5.406;2022-09-16T13:53:25;101127.94;;;13.46;100.00
54042;BME280;41156;51.508;5.406;2022-09-16T14:03:13;101108.88;;;13.83;100.00
54042;BME280;41156;51.508;5.406;2022-09-16T14:06:42;101105.88;;;14.03;100.00
54042;BME280;41156;51.508;5.406;2022-09-16T14:13:08;101097.00;;;14.50;100.00
54042;BME280;41156;51.508;5.406;2022-09-16T14:16:21;101094.66;;;14.65;100.00
54042;BME280;41156;51.508;5.406;2022-09-16T14:19:26;101095.00;;;14.69;100.00
54042;BME280;41156;51.508;5.406;2022-09-16T14:22:27;101076.06;;;14.50;100.00
54042;BME280;41156;51.508;5.406;2022-09-16T14:25:32;101088.00;;;14.37;100.00
54042;BME280;41156;51.508;5.406;2022-09-16T14:28:33;101085.28;;;14.37;100.00
54042;BME280;41156;51.508;5.406;2022-09-16T14:31:35;101085.50;;;14.36;100.00
54042;BME280;41156;51.508;5.406;2022-09-16T14:34:36;101085.63;;;14.29;100.00
54042;BME280;41156;51.508;5.406;2022-09-16T14:37:37;101084.41;;;14.13;100.00
54042;BME280;41156;51.508;5.406;2022-09-16T14:40:39;101086.53;;;14.11;100.00
54042;BME280;41156;51.508;5.406;2022-09-16T14:43:39;101085.84;;;14.28;100.00
54042;BME280;41156;51.508;5.406;2022-09-16T14:46:41;101088.22;;;14.36;100.00
54042;BME280;41156;51.508;5.406;2022-09-16T14:49:44;101070.50;;;14.45;100.00
54042;BME280;41156;51.508;5.406;2022-09-16T14:53:00;101071.69;;;14.49;100.00
54042;BME280;41156;51.508;5.406;2022-09-16T14:56:01;101062.56;;;14.43;100.00
54042;BME280;41156;51.508;5.406;2022-09-16T14:59:02;101062.00;;;14.41;100.00
54042;BME280;41156;51.508;5.406;2022-09-16T15:02:24;101066.13;;;14.44;100.00
54042;BME280;41156;51.508;5.406;2022-09-16T15:05:37;101067.78;;;14.45;100.00
54042;BME280;41156;51.508;5.406;2022-09-16T15:11:56;101062.81;;;14.42;100.00
54042;BME280;41156;51.508;5.406;2022-09-16T15:15:04;101069.22;;;14.48;100.00
54042;BME280;41156;51.508;5.406;2022-09-16T15:18:10;101062.00;;;14.53;100.00
54042;BME280;41156;51.508;5.406;2022-09-16T15:21:23;101058.56;;;14.58;100.00
54042;BME280;41156;51.508;5.406;2022-09-16T15:24:32;101051.47;;;14.57;100.00
54042;BME280;41156;51.508;5.406;2022-09-16T15:27:33;101054.19;;;14.57;100.00
54042;BME280;41156;51.508;5.406;2022-09-16T15:30:33;101054.06;;;14.52;100.00
54042;BME280;41156;51.508;5.406;2022-09-16T15:33:40;101054.53;;;14.49;100.00
54042;BME280;41156;51.508;5.406;2022-09-16T15:36:41;101052.31;;;14.46;100.00
54042;BME280;41156;51.508;5.406;2022-09-16T15:39:41;101057.38;;;14.42;100.00
54042;BME280;41156;51.508;5.406;2022-09-16T15:42:41;101057.13;;;14.32;97.84
54042;BME280;41156;51.508;5.406;2022-09-16T15:45:43;101059.94;;;14.25;99.99
54042;BME280;41156;51.508;5.406;2022-09-16T15:48:49;101064.91;;;14.16;91.45
54042;BME280;41156;51.508;5.406;2022-09-16T15:51:51;101065.00;;;14.10;99.11
54042;BME280;41156;51.508;5.406;2022-09-16T15:54:56;101069.41;;;14.11;99.37
54042;BME280;41156;51.508;5.406;2022-09-16T15:58:05;101068.66;;;14.03;93.55
54042;BME280;41156;51.508;5.406;2022-09-16T16:01:19;101080.94;;;13.94;92.50
54042;BME280;41156;51.508;5.406;2022-09-16T16:04:34;101081.25;;;13.86;96.47
54042;BME280;41156;51.508;5.406;2022-09-16T16:11:04;101087.78;;;13.66;87.72
54042;BME280;41156;51.508;5.406;2022-09-16T16:14:05;101094.13;;;13.60;95.76
54042;BME280;41156;51.508;5.406;2022-09-16T16:20:09;101086.22;;;13.40;92.35
54042;BME280;41156;51.508;5.406;2022-09-16T16:23:12;101090.47;;;13.36;97.45
54042;BME280;41156;51.508;5.406;2022-09-16T16:26:13;101088.41;;;13.31;97.14
54042;BME280;41156;51.508;5.406;2022-09-16T17:01:51;101108.03;;;12.90;100.00
54042;BME280;41156;51.508;5.406;2022-09-16T17:04:52;101110.91;;;12.95;100.00
54042;BME280;41156;51.508;5.406;2022-09-16T17:07:52;101113.84;;;12.93;99.26
54042;BME280;41156;51.508;5.406;2022-09-16T17:11:13;101114.34;;;12.84;99.04
54042;BME280;41156;51.508;5.406;2022-09-16T17:14:14;101116.91;;;12.78;100.00
54042;BME280;41156;51.508;5.406;2022-09-16T17:17:15;101121.56;;;12.71;100.00
54042;BME280;41156;51.508;5.406;2022-09-16T17:20:15;101119.13;;;12.63;99.99
54042;BME280;41156;51.508;5.406;2022-09-16T17:23:16;101126.88;;;12.59;99.59
54042;BME280;41156;51.508;5.406;2022-09-16T17:26:16;101120.50;;;12.47;88.97
54042;BME280;41156;51.508;5.406;2022-09-16T17:29:17;101140.34;;;12.48;98.57
54042;BME280;41156;51.508;5.406;2022-09-16T17:32:17;101136.38;;;12.44;100.00
54042;BME280;41156;51.508;5.406;2022-09-16T17:35:18;101159.97;;;12.43;100.00
54042;BME280;41156;51.508;5.406;2022-09-16T17:38:18;101176.44;;;12.42;100.00
54042;BME280;41156;51.508;5.406;2022-09-16T17:41:19;101151.66;;;12.38;100.00
54042;BME280;41156;51.508;5.406;2022-09-16T17:44:21;101146.50;;;12.30;100.00
54042;BME280;41156;51.508;5.406;2022-09-16T17:47:21;101148.88;;;12.19;100.00
54042;BME280;41156;51.508;5.406;2022-09-16T17:50:22;101140.38;;;12.09;100.00
54042;BME280;41156;51.508;5.406;2022-09-16T17:53:22;101143.97;;;12.03;100.00
54042;BME280;41156;51.508;5.406;2022-09-16T17:56:23;101147.53;;;11.97;100.00
54042;BME280;41156;51.508;5.406;2022-09-16T17:59:24;101154.44;;;11.93;100.00
54042;BME280;41156;51.508;5.406;2022-09-16T18:02:24;101151.72;;;11.86;100.00
54042;BME280;41156;51.508;5.406;2022-09-16T18:05:25;101147.16;;;11.80;100.00
54042;BME280;41156;51.508;5.406;2022-09-16T18:08:26;101143.47;;;11.74;100.00
54042;BME280;41156;51.508;5.406;2022-09-16T18:11:27;101143.69;;;11.66;100.00
54042;BME280;41156;51.508;5.406;2022-09-16T18:14:27;101147.25;;;11.60;100.00
54042;BME280;41156;51.508;5.406;2022-09-16T18:17:28;101145.59;;;11.52;100.00
54042;BME280;41156;51.508;5.406;2022-09-16T18:20:28;101150.84;;;11.47;100.00
54042;BME280;41156;51.508;5.406;2022-09-16T18:23:28;101151.03;;;11.45;100.00
54042;BME280;41156;51.508;5.406;2022-09-16T18:26:30;101159.63;;;11.42;100.00
54042;BME280;41156;51.508;5.406;2022-09-16T18:29:30;101163.34;;;11.41;100.00
54042;BME280;41156;51.508;5.406;2022-09-16T18:32:31;101171.28;;;11.36;100.00
54042;BME280;41156;51.508;5.406;2022-09-16T18:35:32;101169.00;;;11.33;100.00
54042;BME280;41156;51.508;5.406;2022-09-16T18:38:36;101172.31;;;11.28;100.00